KGSP/GSP METAR and TAF weather

Enter ICAO airport designator
Station Type Date Time Source
KGSP METAR 2019/04/19 08:07 UTC NOAA

KGSP 190807Z AUTO 14008KT 10SM BKN009 BKN014 OVC020 18/16 A2970 RMK AO2 T01830161


Station Type Date Time Source
KGSP Decoded METAR 2019/04/19 08:07 UTC NOAA

GREER GREENVILLE SPARTBURG, SC, United States (KGSP) 34-53N 82-13W 286M
Apr 19, 2019 - 04:07 AM EDT / 2019.04.19 0807 UTC
Wind: from the SE (140 degrees) at 9 MPH (8 KT):0
Visibility: 10 mile(s):0
Sky conditions: overcast
Temperature: 64.9 F (18.3 C)
Dew Point: 61.0 F (16.1 C)
Relative Humidity: 86%
Pressure (altimeter): 29.7 in. Hg (1005 hPa)
ob: KGSP 190807Z AUTO 14008KT 10SM BKN009 BKN014 OVC020 18/16 A2970 RMK AO2 T01830161
cycle: 8

Station Type Date Time Source
KGSP TAF 2019/04/19 08:24 UTC NOAA

TAF
AMD KGSP 190821Z 1908/2006 15010G17KT P6SM SCT008 BKN015 OVC025
FM191000 16012G22KT P6SM -SHRA SCT008 BKN015 OVC025
FM191200 17016G27KT 4SM -SHRA BR SCT008 OVC015
TEMPO 1912/1915 2SM TSRA BR OVC008CB
FM191500 18015G26KT 5SM RA SCT008 OVC015 PROB30 1918/1922 2SM TS OVC006CB
FM192200 21012G21KT 4SM BR BKN020 PROB30 1923/2003 2SM -SHRA OVC015

Example: see airport list